Time;durP1;ratioP1;P1;durP2;ratioP2;P2;SDS_P1;SDS_P2;PMS_P1;PMS_P2;Temp;Humidity;BMP_temperature;BMP_pressure;BME280_temperature;BME280_humidity;BME280_pressure;Samples;Min_cycle;Max_cycle;Signal;HPM_P1;HPM_P2
2023/01/03 00:01:38;;;;;;;55.53;30.05;;;;;;;10.05;100.00;101771.78;4960988;29;20035;-83
2023/01/03 00:04:04;;;;;;;61.22;30.73;;;;;;;9.99;100.00;101778.44;4960499;29;20039;-83
2023/01/03 00:06:50;;;;;;;66.43;32.17;;;;;;;10.04;100.00;101775.41;4957787;29;20548;-83
2023/01/03 00:09:19;;;;;;;58.65;29.80;;;;;;;10.24;100.00;101777.28;4958427;29;20039;-83
2023/01/03 00:14:33;;;;;;;61.83;31.55;;;;;;;10.22;100.00;101784.47;4961384;29;20039;-84
2023/01/03 00:17:00;;;;;;;62.72;32.10;;;;;;;10.21;100.00;101777.50;4960454;28;20043;-84
2023/01/03 00:19:27;;;;;;;59.08;31.00;;;;;;;10.13;100.00;101770.19;4943391;29;20043;-84
2023/01/03 00:21:52;;;;;;;64.55;32.58;;;;;;;9.94;100.00;101774.50;4957382;29;20390;-85
2023/01/03 00:24:18;;;;;;;60.92;32.47;;;;;;;9.95;100.00;101770.84;4956974;29;20027;-85
2023/01/03 00:26:44;;;;;;;67.80;34.33;;;;;;;9.88;100.00;101769.72;4957790;29;20047;-86
2023/01/03 00:29:11;;;;;;;63.45;34.08;;;;;;;9.80;100.00;101765.88;4957722;29;20397;-85
2023/01/03 00:31:37;;;;;;;65.88;33.58;;;;;;;9.79;100.00;101769.50;4957518;28;20039;-83
2023/01/03 00:34:03;;;;;;;62.58;33.55;;;;;;;10.03;100.00;101768.44;4957731;29;20031;-83
2023/01/03 00:36:31;;;;;;;59.50;32.80;;;;;;;10.13;100.00;101767.53;4957882;29;20080;-83
2023/01/03 00:38:57;;;;;;;65.85;32.63;;;;;;;9.98;100.00;101765.31;4957251;29;20130;-86
2023/01/03 00:41:22;;;;;;;59.83;32.00;;;;;;;10.05;100.00;101766.47;4957326;29;20070;-85
2023/01/03 00:43:49;;;;;;;61.45;33.58;;;;;;;9.98;100.00;101766.16;4958083;29;20125;-84
2023/01/03 00:46:17;;;;;;;60.35;31.17;;;;;;;10.29;100.00;101777.69;4973167;28;20023;-84
2023/01/03 00:48:43;;;;;;;68.47;32.38;;;;;;;10.29;100.00;101775.06;4958475;29;20036;-84
2023/01/03 00:51:15;;;;;;;57.40;30.83;;;;;;;10.29;100.00;101775.06;4957911;29;20039;-85
2023/01/03 00:53:42;;;;;;;61.22;31.63;;;;;;;10.35;100.00;101771.88;4956199;28;20087;-83
2023/01/03 00:56:11;;;;;;;62.05;31.77;;;;;;;10.20;100.00;101775.84;4963282;29;20031;-83
2023/01/03 00:58:37;;;;;;;58.53;30.90;;;;;;;10.03;100.00;101771.06;4959724;29;20031;-85
2023/01/03 01:01:07;;;;;;;62.25;31.88;;;;;;;9.84;100.00;101764.66;4957270;29;20434;-86
2023/01/03 01:03:34;;;;;;;64.50;32.22;;;;;;;9.76;100.00;101760.97;4939709;29;20485;-85
2023/01/03 01:06:09;;;;;;;62.45;32.53;;;;;;;9.92;100.00;101768.47;4957576;29;20039;-85
2023/01/03 01:08:35;;;;;;;66.50;31.08;;;;;;;9.90;100.00;101775.72;4957063;29;20039;-85
2023/01/03 01:11:01;;;;;;;57.38;29.63;;;;;;;10.17;100.00;101781.41;4956917;29;20045;-85
2023/01/03 01:13:32;;;;;;;59.40;31.45;;;;;;;10.37;100.00;101777.91;4956793;29;20039;-86
2023/01/03 01:16:02;;;;;;;60.88;31.17;;;;;;;10.12;100.00;101773.78;4956327;29;20039;-86
2023/01/03 01:18:28;;;;;;;60.55;31.33;;;;;;;10.09;100.00;101781.16;4956606;29;20035;-85
2023/01/03 01:20:57;;;;;;;57.15;29.90;;;;;;;10.12;100.00;101783.53;4956470;29;20387;-84
2023/01/03 01:23:22;;;;;;;70.30;32.85;;;;;;;10.05;100.00;101782.38;4955392;29;20027;-84
2023/01/03 01:25:48;;;;;;;64.65;32.38;;;;;;;9.83;100.00;101785.97;4956785;29;20057;-84
2023/01/03 01:28:13;;;;;;;66.45;33.42;;;;;;;9.73;100.00;101783.25;4956649;29;20062;-86
2023/01/03 01:30:39;;;;;;;66.20;32.33;;;;;;;9.77;100.00;101782.03;4956660;28;20035;-86
2023/01/03 01:33:05;;;;;;;67.95;32.75;;;;;;;9.75;100.00;101781.28;4939471;29;20035;-84
2023/01/03 01:35:31;;;;;;;69.50;33.85;;;;;;;9.64;100.00;101783.16;4955112;29;20094;-85
2023/01/03 01:37:59;;;;;;;74.22;34.45;;;;;;;9.64;100.00;101786.66;4956515;29;20063;-85
2023/01/03 01:40:25;;;;;;;71.45;34.47;;;;;;;9.67;100.00;101791.69;4956579;29;20074;-85
2023/01/03 01:44:36;;;;;;;73.65;34.83;;;;;;;9.62;100.00;101782.41;4954862;29;20467;-84
2023/01/03 01:45:51;;;;;;;68.55;34.72;;;;;;;9.72;100.00;101776.25;4955398;29;20059;-85
2023/01/03 01:48:17;;;;;;;68.55;34.15;;;;;;;9.66;100.00;101763.53;4956248;29;20071;-84
2023/01/03 01:50:55;;;;;;;66.38;34.00;;;;;;;9.65;100.00;101764.47;4955002;29;20043;-84
2023/01/03 01:53:27;;;;;;;74.80;37.08;;;;;;;9.61;100.00;101768.34;4955693;28;20039;-84
2023/01/03 01:55:59;;;;;;;70.72;33.28;;;;;;;9.61;100.00;101771.00;4955359;29;20434;-84
2023/01/03 01:58:30;;;;;;;69.40;35.20;;;;;;;9.59;100.00;101765.00;4956501;29;20035;-85
2023/01/03 02:00:57;;;;;;;72.40;34.83;;;;;;;9.64;100.00;101762.81;4955819;29;20501;-84
2023/01/03 02:03:23;;;;;;;69.72;33.90;;;;;;;9.76;100.00;101756.50;4955777;29;20038;-83
2023/01/03 02:05:52;;;;;;;68.78;33.88;;;;;;;9.72;100.00;101768.31;4955647;29;20031;-84
2023/01/03 02:08:18;;;;;;;60.50;32.25;;;;;;;9.70;100.00;101764.97;4955466;29;20047;-85
2023/01/03 02:10:49;;;;;;;67.45;34.20;;;;;;;9.60;100.00;101771.97;4955663;29;20106;-86
2023/01/03 02:13:23;;;;;;;71.72;34.38;;;;;;;9.56;100.00;101770.53;4955363;28;20088;-85
2023/01/03 02:16:18;;;;;;;71.78;35.50;;;;;;;9.56;100.00;101765.25;4954617;28;20368;-84
2023/01/03 02:19:15;;;;;;;61.47;32.78;;;;;;;9.78;100.00;101754.56;4955460;29;20066;-85
2023/01/03 02:22:02;;;;;;;66.13;32.65;;;;;;;9.69;100.00;101755.34;4955639;29;20035;-84
2023/01/03 02:24:55;;;;;;;70.22;33.97;;;;;;;9.74;100.00;101750.47;4955694;29;20035;-86
2023/01/03 02:27:24;;;;;;;65.20;33.10;;;;;;;9.72;100.00;101743.66;4955438;29;20038;-85
2023/01/03 02:30:01;;;;;;;65.90;32.63;;;;;;;9.87;100.00;101747.69;4955635;29;20065;-85
2023/01/03 02:32:42;;;;;;;61.92;30.67;;;;;;;10.06;100.00;101752.28;4956026;29;20097;-83
2023/01/03 02:35:44;;;;;;;64.32;31.90;;;;;;;9.97;100.00;101759.19;4958122;28;20031;-85
2023/01/03 02:38:22;;;;;;;63.90;31.65;;;;;;;10.12;100.00;101751.75;4955347;29;20028;-85
2023/01/03 02:41:05;;;;;;;67.50;31.75;;;;;;;9.90;100.00;101751.88;4955687;29;20171;-83
2023/01/03 02:43:35;;;;;;;;;;;;;;;9.75;100.00;101754.81;4956526;29;20347;-85
2023/01/03 02:46:11;;;;;;;60.03;30.33;;;;;;;9.83;100.00;101746.25;4953808;29;19926;-84
2023/01/03 02:48:58;;;;;;;76.47;31.80;;;;;;;9.88;100.00;101751.19;4954240;29;20043;-86
2023/01/03 02:51:33;;;;;;;68.13;32.10;;;;;;;9.72;100.00;101749.78;4955984;29;20467;-85
2023/01/03 02:54:01;;;;;;;64.32;32.50;;;;;;;9.64;100.00;101736.34;4955779;29;20027;-84
2023/01/03 02:56:34;;;;;;;68.20;33.85;;;;;;;9.63;100.00;101742.59;4955640;29;20027;-86
2023/01/03 02:59:06;;;;;;;68.80;33.40;;;;;;;9.88;100.00;101749.34;4954420;29;20055;-82
2023/01/03 03:01:33;;;;;;;73.30;34.05;;;;;;;9.60;100.00;101740.22;4956036;29;20082;-85
2023/01/03 03:04:00;;;;;;;77.35;34.10;;;;;;;9.64;100.00;101744.31;4955869;29;20486;-85
2023/01/03 03:06:41;;;;;;;90.38;35.88;;;;;;;9.64;100.00;101735.50;4954194;29;20031;-86
2023/01/03 03:09:06;;;;;;;110.93;41.17;;;;;;;9.81;100.00;101727.00;4955388;29;20078;-83
2023/01/03 03:14:33;;;;;;;116.45;42.67;;;;;;;9.83;100.00;101725.91;4955333;29;20039;-85
2023/01/03 03:17:12;;;;;;;114.28;40.55;;;;;;;9.63;100.00;101721.44;4954883;29;20172;-84
2023/01/03 03:25:51;;;;;;;90.18;35.22;;;;;;;9.79;100.00;101711.25;4955277;29;20071;-84
2023/01/03 03:28:33;;;;;;;89.47;37.53;;;;;;;9.68;100.00;101708.66;4942969;29;20047;-86
2023/01/03 03:31:13;;;;;;;82.95;35.70;;;;;;;9.78;100.00;101717.50;4958303;29;20039;-84
2023/01/03 03:34:02;;;;;;;83.28;35.03;;;;;;;9.80;100.00;101731.47;4957308;29;20050;-85
2023/01/03 03:36:44;;;;;;;81.60;34.17;;;;;;;9.72;100.00;101728.59;4955431;28;20054;-85
2023/01/03 03:44:59;;;;;;;57.78;25.63;;;;;;;9.80;100.00;101731.47;4958293;29;20034;-85
2023/01/03 03:44:59;;;;;;;98.40;36.45;;;;;;;9.78;100.00;101737.84;4957884;29;20514;-84
2023/01/03 03:47:34;;;;;;;93.05;38.28;;;;;;;9.73;100.00;101737.41;4957944;29;20406;-83
2023/01/03 03:50:15;;;;;;;95.75;37.05;;;;;;;9.78;100.00;101741.31;4958298;29;20434;-84
2023/01/03 03:52:45;;;;;;;96.25;38.65;;;;;;;9.92;100.00;101739.34;4958640;29;20058;-85
2023/01/03 03:55:23;;;;;;;100.88;37.80;;;;;;;10.04;100.00;101739.16;4958479;29;20488;-84
2023/01/03 03:58:04;;;;;;;96.45;37.95;;;;;;;9.93;100.00;101741.03;4958448;29;20131;-86
2023/01/03 04:00:37;;;;;;;106.95;40.28;;;;;;;9.97;100.00;101739.81;4957818;29;20070;-85
2023/01/03 04:03:05;;;;;;;102.18;38.17;;;;;;;10.05;100.00;101740.84;4958708;29;20027;-88
2023/01/03 04:05:35;;;;;;;106.78;40.42;;;;;;;10.04;100.00;101743.63;4963539;29;20566;-85
2023/01/03 04:08:01;;;;;;;107.25;41.15;;;;;;;9.99;100.00;101740.50;4974937;29;20086;-85
2023/01/03 04:10:26;;;;;;;101.55;41.28;;;;;;;9.94;100.00;101748.88;4980380;29;20103;-86
2023/01/03 04:12:52;;;;;;;100.90;41.55;;;;;;;10.00;100.00;101739.56;4969111;28;20039;-86
2023/01/03 04:15:18;;;;;;;105.95;40.85;;;;;;;10.24;100.00;101732.22;4963725;29;20505;-86
2023/01/03 04:17:44;;;;;;;95.65;38.53;;;;;;;10.12;100.00;101727.91;4942983;29;20379;-86
2023/01/03 04:20:10;;;;;;;97.55;39.83;;;;;;;10.05;100.00;101729.41;4960693;29;20047;-86
2023/01/03 04:22:37;;;;;;;93.13;39.90;;;;;;;10.28;100.00;101736.28;4958085;29;20050;-86
2023/01/03 04:25:02;;;;;;;94.45;38.55;;;;;;;9.97;100.00;101732.72;4957634;29;20037;-86
2023/01/03 04:27:28;;;;;;;99.43;40.42;;;;;;;10.06;100.00;101728.44;4958043;29;20035;-85
2023/01/03 04:29:55;;;;;;;92.35;39.00;;;;;;;10.18;100.00;101725.63;4956405;29;20019;-86
2023/01/03 04:32:21;;;;;;;91.40;38.53;;;;;;;9.92;100.00;101729.59;4957545;29;20118;-85
2023/01/03 04:34:47;;;;;;;96.45;40.90;;;;;;;9.91;100.00;101737.69;4957284;29;20057;-86
2023/01/03 04:37:12;;;;;;;98.65;38.42;;;;;;;9.79;100.00;101737.72;4956906;28;20057;-84
2023/01/03 04:39:38;;;;;;;95.03;38.65;;;;;;;9.88;100.00;101739.59;4956914;28;20023;-86
2023/01/03 04:44:00;;;;;;;104.05;41.10;;;;;;;9.77;100.00;101737.03;4956761;29;20046;-85
2023/01/03 04:44:49;;;;;;;107.53;41.75;;;;;;;9.99;100.00;101743.16;4955381;29;20090;-85
2023/01/03 04:47:15;;;;;;;102.50;40.67;;;;;;;9.91;100.00;101749.09;4956668;29;20122;-84
2023/01/03 04:49:49;;;;;;;102.00;41.03;;;;;;;9.90;100.00;101746.59;4957675;29;20073;-85
2023/01/03 04:52:15;;;;;;;98.75;41.15;;;;;;;9.88;100.00;101762.59;4956674;29;20106;-84
2023/01/03 04:54:41;;;;;;;106.57;41.58;;;;;;;9.87;100.00;101758.28;4957140;29;20042;-85
2023/01/03 04:57:08;;;;;;;105.60;42.85;;;;;;;9.90;100.00;101741.28;4956887;28;20487;-83
2023/01/03 04:59:34;;;;;;;103.68;39.67;;;;;;;10.15;100.00;101743.56;4957504;28;20039;-85
2023/01/03 05:02:00;;;;;;;108.43;42.80;;;;;;;10.15;100.00;101752.38;4956918;29;20035;-85
2023/01/03 05:04:27;;;;;;;101.38;41.72;;;;;;;9.98;100.00;101757.38;4956967;29;20074;-86
2023/01/03 05:06:54;;;;;;;102.20;40.63;;;;;;;10.13;100.00;101753.44;4956702;29;20035;-85
2023/01/03 05:09:19;;;;;;;101.05;40.97;;;;;;;10.18;100.00;101756.56;4957183;29;20167;-84
2023/01/03 05:11:45;;;;;;;114.30;42.00;;;;;;;9.97;100.00;101753.06;4955236;29;20486;-84
2023/01/03 05:14:10;;;;;;;99.45;39.92;;;;;;;10.14;100.00;101755.16;4956660;29;20043;-85
2023/01/03 05:16:36;;;;;;;108.38;42.13;;;;;;;10.09;100.00;101760.81;4956670;29;20548;-85
2023/01/03 05:19:01;;;;;;;113.65;41.95;;;;;;;9.96;100.00;101759.31;4957000;29;20490;-87
2023/01/03 05:27:21;;;;;;;105.20;40.45;;;;;;;10.00;100.00;101753.63;4938956;29;20047;-84
2023/01/03 05:29:49;;;;;;;121.22;42.55;;;;;;;9.91;100.00;101764.16;4954791;29;20136;-84
2023/01/03 05:32:15;;;;;;;112.00;42.70;;;;;;;9.68;100.00;101758.94;4958172;29;20027;-86
2023/01/03 05:34:41;;;;;;;111.43;41.50;;;;;;;9.76;100.00;101756.50;4957133;29;20051;-84
2023/01/03 05:37:06;;;;;;;112.70;42.30;;;;;;;9.77;100.00;101746.78;4941549;29;20462;-85
2023/01/03 05:39:32;;;;;;;106.43;40.47;;;;;;;9.90;100.00;101751.88;4956388;29;20039;-85
2023/01/03 05:42:00;;;;;;;108.80;41.95;;;;;;;9.63;100.00;101752.34;4955039;29;20027;-85
2023/01/03 05:44:31;;;;;;;113.55;42.35;;;;;;;9.52;100.00;101747.94;4955197;29;20150;-85
2023/01/03 05:46:58;;;;;;;108.53;42.33;;;;;;;9.64;100.00;101746.94;4955051;29;20411;-84
2023/01/03 05:49:24;;;;;;;113.63;40.92;;;;;;;9.72;100.00;101744.50;4960928;28;20039;-84
2023/01/03 05:51:49;;;;;;;107.07;41.22;;;;;;;9.60;100.00;101756.09;4959807;28;20343;-83
2023/01/03 05:54:16;;;;;;;109.95;43.35;;;;;;;9.48;100.00;101762.38;4956110;29;20494;-85
2023/01/03 05:56:42;;;;;;;113.95;43.63;;;;;;;9.46;100.00;101766.97;4956078;28;20048;-84
2023/01/03 05:59:08;;;;;;;119.72;44.28;;;;;;;9.38;100.00;101756.16;4955951;28;20043;-85
2023/01/03 06:01:34;;;;;;;118.35;44.78;;;;;;;9.43;100.00;101769.84;4956773;29;20114;-87
2023/01/03 06:04:00;;;;;;;121.75;43.90;;;;;;;9.46;100.00;101763.47;4955065;29;20513;-86
2023/01/03 06:06:25;;;;;;;113.50;43.58;;;;;;;9.54;100.00;101775.13;4956212;29;20035;-84
2023/01/03 06:08:51;;;;;;;115.47;44.45;;;;;;;9.34;100.00;101766.16;4956990;29;20474;-86
2023/01/03 06:11:17;;;;;;;114.75;44.63;;;;;;;9.31;100.00;101771.66;4955269;29;20474;-84
2023/01/03 06:13:46;;;;;;;107.57;43.20;;;;;;;9.37;100.00;101778.28;4954636;29;20087;-83
2023/01/03 06:18:58;;;;;;;114.03;42.65;;;;;;;9.48;100.00;101772.97;4955877;29;20055;-84
2023/01/03 06:21:24;;;;;;;119.53;42.67;;;;;;;9.43;100.00;101776.94;4955855;29;20040;-85
2023/01/03 06:23:50;;;;;;;118.80;43.63;;;;;;;9.63;100.00;101776.16;4954715;29;20049;-85
2023/01/03 06:26:17;;;;;;;115.53;44.13;;;;;;;9.57;100.00;101772.22;4955873;29;20549;-85
2023/01/03 06:28:43;;;;;;;108.88;42.25;;;;;;;9.59;100.00;101769.44;4955060;29;20085;-84
2023/01/03 06:31:09;;;;;;;109.55;44.38;;;;;;;9.52;100.00;101763.81;4955519;29;20101;-85
2023/01/03 06:33:35;;;;;;;116.13;43.55;;;;;;;9.67;100.00;101770.50;4955838;29;20031;-83
2023/01/03 06:36:09;;;;;;;119.70;43.42;;;;;;;9.60;100.00;101769.34;4955347;29;20031;-85
2023/01/03 06:38:35;;;;;;;128.00;44.08;;;;;;;9.66;100.00;101768.81;4955414;29;20067;-86
2023/01/03 06:41:01;;;;;;;120.97;44.42;;;;;;;9.54;100.00;101775.13;4953834;29;20035;-79
2023/01/03 06:43:27;;;;;;;121.53;43.60;;;;;;;9.71;100.00;101771.91;4955113;29;20376;-82
2023/01/03 06:54:18;;;;;;;132.48;45.70;;;;;;;9.60;100.00;101779.91;4954660;29;20043;-82
2023/01/03 06:56:43;;;;;;;138.43;47.75;;;;;;;9.77;100.00;101774.09;4954645;29;20130;-82
2023/01/03 06:59:09;;;;;;;150.40;48.40;;;;;;;9.66;100.00;101775.91;4954384;28;20035;-84
2023/01/03 07:01:34;;;;;;;152.75;47.55;;;;;;;9.53;100.00;101781.38;4955143;28;20031;-83
2023/01/03 07:04:00;;;;;;;152.55;50.72;;;;;;;9.47;100.00;101787.19;4958355;29;20027;-81
2023/01/03 07:06:26;;;;;;;148.65;49.45;;;;;;;9.53;100.00;101781.38;4958737;28;20363;-81
2023/01/03 07:08:52;;;;;;;147.73;50.20;;;;;;;9.43;100.00;101780.44;4958283;29;20054;-80
2023/01/03 07:11:18;;;;;;;157.27;49.58;;;;;;;9.39;100.00;101778.16;4957613;28;20374;-82
2023/01/03 07:13:58;;;;;;;143.68;48.85;;;;;;;9.43;100.00;101787.53;4958861;29;20050;-82
2023/01/03 07:16:32;;;;;;;136.60;47.22;;;;;;;9.59;100.00;101791.47;4958541;29;20109;-86
2023/01/03 07:18:58;;;;;;;138.40;45.70;;;;;;;9.65;100.00;101790.09;4957987;29;20044;-79
2023/01/03 07:21:26;;;;;;;131.95;47.17;;;;;;;9.58;100.00;101795.06;4958343;29;20093;-84
2023/01/03 07:23:53;;;;;;;131.95;45.38;;;;;;;9.57;100.00;101804.00;4958046;29;20388;-84
2023/01/03 07:26:19;;;;;;;124.50;45.83;;;;;;;9.60;100.00;101801.09;4956763;29;20035;-84
2023/01/03 07:28:44;;;;;;;128.57;46.15;;;;;;;9.55;100.00;101807.69;4958065;28;20046;-83
2023/01/03 07:31:10;;;;;;;115.68;43.78;;;;;;;9.66;100.00;101812.97;4957194;29;20090;-83
2023/01/03 07:33:37;;;;;;;128.35;47.13;;;;;;;9.58;100.00;101815.41;4957013;28;20395;-82
2023/01/03 07:36:14;;;;;;;121.13;43.92;;;;;;;9.82;100.00;101819.53;4956360;29;20039;-85
2023/01/03 07:38:42;;;;;;;119.47;42.83;;;;;;;9.74;100.00;101823.78;4956866;28;20034;-82
2023/01/03 07:41:09;;;;;;;122.80;45.70;;;;;;;9.71;100.00;101832.81;4957123;28;20032;-83
2023/01/03 07:43:36;;;;;;;121.68;45.58;;;;;;;9.86;100.00;101826.28;4957695;28;20034;-84
2023/01/03 07:46:10;;;;;;;121.72;45.55;;;;;;;9.64;100.00;101836.94;4956271;29;20047;-84
2023/01/03 07:48:36;;;;;;;132.90;48.05;;;;;;;9.56;100.00;101842.00;4957747;29;20398;-83
2023/01/03 07:51:04;;;;;;;124.30;45.65;;;;;;;9.66;100.00;101842.09;4957612;29;20088;-82
2023/01/03 07:53:30;;;;;;;113.05;44.60;;;;;;;9.68;100.00;101842.81;4957541;29;20047;-83
2023/01/03 07:56:07;;;;;;;111.93;44.35;;;;;;;9.71;100.00;101842.56;4957380;29;20050;-82
2023/01/03 07:58:33;;;;;;;111.82;43.95;;;;;;;9.92;100.00;101832.03;4957532;29;20046;-82
2023/01/03 08:01:04;;;;;;;114.68;43.08;;;;;;;9.85;100.00;101835.19;4957439;29;20047;-82
2023/01/03 08:03:29;;;;;;;116.07;44.70;;;;;;;9.80;100.00;101832.09;4957682;29;20047;-82
2023/01/03 08:05:59;;;;;;;110.18;43.35;;;;;;;9.92;100.00;101837.31;4957211;29;20086;-83
2023/01/03 08:08:24;;;;;;;108.07;42.58;;;;;;;10.01;100.00;101844.53;4957515;29;20497;-82
2023/01/03 08:13:34;;;;;;;114.07;43.10;;;;;;;9.82;100.00;101845.19;4955911;28;20071;-81
2023/01/03 08:15:59;;;;;;;119.78;45.55;;;;;;;9.83;100.00;101846.88;4957274;29;20134;-81
2023/01/03 08:18:26;;;;;;;122.20;45.88;;;;;;;9.97;100.00;101843.09;4957310;29;20067;-83
2023/01/03 08:20:54;;;;;;;131.77;45.83;;;;;;;9.97;100.00;101843.09;4957029;29;20520;-82
2023/01/03 08:23:20;;;;;;;135.98;47.55;;;;;;;10.03;100.00;101847.88;4958036;29;20051;-85
2023/01/03 08:25:49;;;;;;;117.63;46.13;;;;;;;10.06;100.00;101847.63;4954758;28;20420;-84
2023/01/03 08:28:15;;;;;;;136.00;46.15;;;;;;;10.11;100.00;101850.75;4947770;28;20039;-82
2023/01/03 08:30:48;;;;;;;137.75;47.92;;;;;;;9.85;100.00;101852.88;4952114;28;20043;-84
2023/01/03 08:33:17;;;;;;;124.15;45.85;;;;;;;10.12;100.00;101860.38;4951255;28;20039;-81
2023/01/03 08:35:54;;;;;;;123.32;46.28;;;;;;;9.99;100.00;101857.88;4951044;29;20031;-81
2023/01/03 08:38:25;;;;;;;130.13;46.72;;;;;;;9.78;100.00;101865.75;4951059;28;20081;-84
2023/01/03 08:40:52;;;;;;;123.60;48.92;;;;;;;9.92;100.00;101867.28;4950885;28;20047;-83
2023/01/03 08:43:18;;;;;;;125.13;47.63;;;;;;;9.88;100.00;101865.03;4951283;29;20086;-83
2023/01/03 08:45:47;;;;;;;132.00;49.30;;;;;;;9.98;100.00;101865.94;4952354;29;20046;-80
2023/01/03 08:48:12;;;;;;;135.90;50.15;;;;;;;9.81;100.00;101860.22;4952065;29;20118;-84
2023/01/03 08:50:40;;;;;;;119.47;47.90;;;;;;;10.03;100.00;101869.06;4952743;28;20130;-83
2023/01/03 08:53:07;;;;;;;124.85;49.10;;;;;;;9.96;100.00;101863.44;4952042;28;20035;-82
2023/01/03 08:55:34;;;;;;;134.77;48.65;;;;;;;9.99;100.00;101865.84;4950929;29;20043;-81
2023/01/03 08:57:59;;;;;;;126.88;47.95;;;;;;;9.79;100.00;101864.81;4951021;29;20123;-81
2023/01/03 09:00:27;;;;;;;126.55;48.25;;;;;;;10.07;100.00;101873.16;4951403;29;20049;-81
2023/01/03 09:02:52;;;;;;;123.30;48.05;;;;;;;9.99;100.00;101875.59;4951992;29;20050;-80
2023/01/03 09:05:18;;;;;;;136.27;48.47;;;;;;;9.95;100.00;101876.78;4952829;29;20027;-80
2023/01/03 09:07:43;;;;;;;135.40;49.53;;;;;;;9.71;100.00;101867.22;4953029;29;20046;-81
2023/01/03 09:10:10;;;;;;;130.68;48.08;;;;;;;9.76;100.00;101872.16;4951441;28;20082;-82
2023/01/03 09:12:35;;;;;;;135.13;50.67;;;;;;;9.71;100.00;101872.50;4947804;29;20119;-82
2023/01/03 09:15:01;;;;;;;126.03;48.40;;;;;;;9.91;100.00;101880.69;4950680;29;20137;-82
2023/01/03 09:17:28;;;;;;;128.68;47.88;;;;;;;10.13;100.00;101880.59;4948656;29;20030;-82
2023/01/03 09:19:53;;;;;;;125.35;48.28;;;;;;;9.90;100.00;101884.28;4950485;29;20133;-82
2023/01/03 09:22:21;;;;;;;126.75;47.58;;;;;;;10.06;100.00;101890.84;4955184;29;20066;-87
2023/01/03 09:24:49;;;;;;;131.38;48.33;;;;;;;10.12;100.00;101894.81;4950476;28;20660;-84
2023/01/03 09:27:15;;;;;;;129.15;48.55;;;;;;;10.23;100.00;101898.28;4952551;29;20106;-87
2023/01/03 09:29:40;;;;;;;116.80;45.33;;;;;;;9.95;100.00;101890.88;4957274;29;20039;-82
2023/01/03 09:32:06;;;;;;;111.78;43.95;;;;;;;9.96;100.00;101908.47;4952574;28;20054;-82
2023/01/03 09:34:31;;;;;;;106.18;44.05;;;;;;;9.92;100.00;101903.53;4951080;28;20051;-84
2023/01/03 09:36:57;;;;;;;102.25;43.40;;;;;;;10.02;100.00;101899.16;4952624;29;20133;-85
2023/01/03 09:39:22;;;;;;;84.35;35.35;;;;;;;9.89;100.00;101894.03;4954351;29;20042;-83
2023/01/03 09:43:11;;;;;;;79.95;34.42;;;;;;;10.05;100.00;101894.47;4952561;28;20038;-84
2023/01/03 09:44:39;;;;;;;93.20;35.75;;;;;;;10.25;100.00;101891.06;4956770;29;20103;-84
2023/01/03 09:47:05;;;;;;;90.32;39.53;;;;;;;10.07;100.00;101878.47;4948667;29;20062;-80
2023/01/03 09:49:34;;;;;;;92.05;38.35;;;;;;;10.16;100.00;101880.38;4946948;29;20079;-82
2023/01/03 10:04:11;;;;;;;79.82;34.55;;;;;;;10.53;100.00;101879.00;4947294;28;20422;-84
2023/01/03 10:07:20;;;;;;;83.70;35.40;;;;;;;10.29;100.00;101878.41;4889424;29;20135;-85
2023/01/03 10:10:12;;;;;;;85.55;35.83;;;;;;;10.18;100.00;101878.44;4890771;29;20137;-86
2023/01/03 10:13:11;;;;;;;84.35;36.00;;;;;;;10.44;100.00;101877.09;4873039;29;20061;-81
2023/01/03 10:16:06;;;;;;;85.15;37.08;;;;;;;10.53;100.00;101879.00;4890652;29;20050;-85
2023/01/03 10:19:09;;;;;;;91.63;40.60;;;;;;;10.19;100.00;101869.53;4927599;29;20043;-85
2023/01/03 10:21:40;;;;;;;88.22;36.92;;;;;;;10.20;100.00;101866.75;4952691;29;20039;-87
2023/01/03 10:24:29;;;;;;;93.47;37.63;;;;;;;10.14;100.00;101872.53;4951133;29;20027;-82
2023/01/03 10:27:16;;;;;;;82.90;37.22;;;;;;;10.24;100.00;101877.94;4932511;29;20118;-83
2023/01/03 10:29:44;;;;;;;92.13;38.30;;;;;;;10.31;100.00;101869.34;4936173;29;20056;-83
2023/01/03 10:32:19;;;;;;;96.70;40.97;;;;;;;10.36;100.00;101863.66;4943448;29;20050;-84
2023/01/03 10:35:20;;;;;;;90.10;37.65;;;;;;;10.55;100.00;101860.31;4950299;28;20035;-84
2023/01/03 10:37:46;;;;;;;83.65;36.42;;;;;;;10.42;100.00;101854.34;4925376;29;20106;-82
2023/01/03 10:40:13;;;;;;;84.75;37.63;;;;;;;10.54;100.00;101853.34;4950024;29;20135;-86
2023/01/03 10:42:40;;;;;;;81.47;37.33;;;;;;;10.42;100.00;101855.19;4948764;28;20063;-84
2023/01/03 10:45:18;;;;;;;117.38;58.15;;;;;;;10.38;100.00;101846.66;4947965;29;20043;-85
2023/01/03 10:47:43;;;;;;;86.93;37.70;;;;;;;10.27;100.00;101849.34;4940627;29;20443;-88
2023/01/03 10:50:20;;;;;;;87.07;38.47;;;;;;;10.29;100.00;101846.59;4951129;29;20171;-84
2023/01/03 10:52:57;;;;;;;88.15;36.53;;;;;;;10.40;100.00;101837.75;4960463;29;20126;-86
2023/01/03 10:55:25;;;;;;;86.00;37.42;;;;;;;10.40;100.00;101846.56;4961875;29;20059;-88
2023/01/03 10:57:59;;;;;;;83.47;36.92;;;;;;;10.55;100.00;101842.59;4958765;29;20132;-82
2023/01/03 11:00:29;;;;;;;90.55;37.47;;;;;;;10.36;100.00;101839.81;4957472;29;20031;-84
2023/01/03 11:03:12;;;;;;;86.43;36.92;;;;;;;10.40;100.00;101835.94;4953590;29;20176;-86
2023/01/03 11:05:38;;;;;;;;;;;;;;;10.20;100.00;101834.97;4958544;29;20157;-85
2023/01/03 11:08:13;;;;;;;94.78;39.28;;;;;;;10.20;100.00;101828.81;4959369;29;19938;-83
2023/01/03 11:10:58;;;;;;;96.47;42.00;;;;;;;10.26;100.00;101836.25;4958669;29;20479;-82
2023/01/03 11:13:38;;;;;;;97.30;41.53;;;;;;;10.30;100.00;101835.03;4956036;29;20042;-85
2023/01/03 11:16:18;;;;;;;88.10;37.58;;;;;;;10.45;100.00;101841.69;4954904;29;20093;-84
2023/01/03 11:19:01;;;;;;;99.65;40.60;;;;;;;10.53;100.00;101838.41;4945926;28;20043;-86
2023/01/03 11:21:27;;;;;;;94.28;41.65;;;;;;;10.47;100.00;101829.16;4946681;29;20039;-84
2023/01/03 11:24:21;;;;;;;96.82;40.50;;;;;;;10.40;100.00;101829.81;4961684;29;20461;-87
2023/01/03 11:27:12;;;;;;;96.03;42.45;;;;;;;10.34;100.00;101828.53;4960129;28;20079;-87
2023/01/03 11:30:11;;;;;;;94.55;41.42;;;;;;;10.34;100.00;101823.22;4964250;28;20042;-84
2023/01/03 11:32:53;;;;;;;93.10;39.80;;;;;;;10.42;100.00;101823.41;4962478;28;20035;-84
2023/01/03 11:35:38;;;;;;;77.25;31.45;;;;;;;10.43;100.00;101819.78;4964519;29;20035;-84
2023/01/03 11:38:04;;;;;;;92.10;40.78;;;;;;;10.50;100.00;101820.94;4959857;29;20031;-83
2023/01/03 11:40:32;;;;;;;97.32;40.97;;;;;;;10.62;100.00;101814.59;4957635;29;20147;-85
2023/01/03 11:43:04;;;;;;;103.25;41.20;;;;;;;10.58;100.00;101818.47;4958073;29;20034;-85
2023/01/03 11:45:41;;;;;;;88.53;41.42;;;;;;;10.63;100.00;101811.00;4952943;28;20450;-85
2023/01/03 11:48:22;;;;;;;99.03;42.42;;;;;;;10.62;100.00;101811.94;4951486;29;20451;-87
2023/01/03 11:51:00;;;;;;;98.32;42.15;;;;;;;10.72;100.00;101812.00;4958421;29;20040;-84
2023/01/03 11:53:35;;;;;;;95.35;41.38;;;;;;;10.84;100.00;101809.13;4968700;29;20450;-88
2023/01/03 11:56:29;;;;;;;99.65;39.95;;;;;;;10.75;100.00;101803.78;4969567;28;20031;-85
2023/01/03 11:59:37;;;;;;;96.72;40.67;;;;;;;10.81;100.00;101798.78;4947416;29;20035;-87
2023/01/03 12:02:22;;;;;;;95.05;41.72;;;;;;;10.88;100.00;101815.84;4946959;29;20076;-91
2023/01/03 12:05:07;;;;;;;95.88;41.95;;;;;;;10.88;100.00;101799.94;4965388;29;20486;-86
2023/01/03 12:07:55;;;;;;;92.93;40.10;;;;;;;10.85;100.00;101802.84;4969556;29;20039;-91
2023/01/03 12:10:39;;;;;;;95.68;42.45;;;;;;;10.82;100.00;101811.09;4959928;29;20094;-87